Time;durP1;ratioP1;P1;durP2;ratioP2;P2;SDS_P1;SDS_P2;PMS_P1;PMS_P2;Temp;Humidity;BMP_temperature;BMP_pressure;BME280_temperature;BME280_humidity;BME280_pressure;Samples;Min_cycle;Max_cycle;Signal;HPM_P1;HPM_P2
2023/01/27 00:02:21;;;;;;;15.50;7.57;;;;;;;;;;5042302;28;20414;-80
2023/01/27 00:04:47;;;;;;;14.30;8.27;;;;;;;;;;5059085;28;20451;-80
2023/01/27 00:07:13;;;;;;;13.50;7.53;;;;;;;;;;5077251;28;20823;-80
2023/01/27 00:09:40;;;;;;;15.73;7.30;;;;;;;;;;5060050;28;20426;-80
2023/01/27 00:14:51;;;;;;;17.20;7.22;;;;;;;;;;5076807;28;20192;-80
2023/01/27 00:17:17;;;;;;;19.27;7.30;;;;;;;;;;5076783;28;20184;-80
2023/01/27 00:19:43;;;;;;;18.33;6.73;;;;;;;;;;5076953;28;20423;-80
2023/01/27 00:24:54;;;;;;;12.48;6.55;;;;;;;;;;5076908;28;20171;-80
2023/01/27 00:27:20;;;;;;;17.08;6.55;;;;;;;;;;5076606;28;20176;-80
2023/01/27 00:29:46;;;;;;;10.47;6.43;;;;;;;;;;5077174;28;20187;-80
2023/01/27 00:34:56;;;;;;;16.17;7.00;;;;;;;;;;5076634;28;20549;-80
2023/01/27 00:37:22;;;;;;;17.93;7.10;;;;;;;;;;5076387;28;20222;-80
2023/01/27 00:39:48;;;;;;;13.40;6.10;;;;;;;;;;5058815;28;20415;-80
2023/01/27 00:42:15;;;;;;;17.53;6.23;;;;;;;;;;5077019;28;20442;-80
2023/01/27 00:45:47;;;;;;;13.05;7.07;;;;;;;;;;5075773;28;20439;-79
2023/01/27 00:47:27;;;;;;;14.18;7.05;;;;;;;;;;5075816;28;20181;-80
2023/01/27 00:49:53;;;;;;;16.77;5.95;;;;;;;;;;5058399;28;20222;-79
2023/01/27 00:52:19;;;;;;;12.83;6.50;;;;;;;;;;5075884;28;20183;-80
2023/01/27 00:54:44;;;;;;;8.98;5.35;;;;;;;;;;5058038;28;20399;-80
2023/01/27 00:57:10;;;;;;;11.87;5.67;;;;;;;;;;5057919;28;20521;-80
2023/01/27 00:59:36;;;;;;;18.90;6.20;;;;;;;;;;5075932;28;20523;-79
2023/01/27 01:02:02;;;;;;;13.93;4.83;;;;;;;;;;5058390;28;20173;-80
2023/01/27 01:04:28;;;;;;;16.08;6.32;;;;;;;;;;5057817;28;20410;-80
2023/01/27 01:06:54;;;;;;;17.97;6.23;;;;;;;;;;5057789;28;20230;-80
2023/01/27 01:09:20;;;;;;;10.70;6.90;;;;;;;;;;5075624;28;20530;-80
2023/01/27 01:11:46;;;;;;;20.10;5.80;;;;;;;;;;5041522;28;20423;-80
2023/01/27 01:14:12;;;;;;;17.63;6.30;;;;;;;;;;5075547;28;21000;-80
2023/01/27 01:16:38;;;;;;;15.47;6.60;;;;;;;;;;5076190;28;20430;-80
2023/01/27 01:19:04;;;;;;;9.60;5.87;;;;;;;;;;5075425;28;20460;-80
2023/01/27 01:21:30;;;;;;;14.53;6.53;;;;;;;;;;5058212;28;20502;-80
2023/01/27 01:23:56;;;;;;;16.50;5.27;;;;;;;;;;5071628;28;20439;-80
2023/01/27 01:26:22;;;;;;;16.23;5.77;;;;;;;;;;5055956;28;20767;-80
2023/01/27 01:28:48;;;;;;;11.90;6.88;;;;;;;;;;5055898;28;20412;-80
2023/01/27 01:31:16;;;;;;;12.75;6.30;;;;;;;;;;5055751;28;20227;-80
2023/01/27 01:33:41;;;;;;;16.05;6.80;;;;;;;;;;5055956;28;20353;-80
2023/01/27 01:36:09;;;;;;;15.27;7.90;;;;;;;;;;5055405;28;20219;-80
2023/01/27 01:38:35;;;;;;;13.95;7.10;;;;;;;;;;5055623;28;20196;-80
2023/01/27 01:41:01;;;;;;;16.88;8.27;;;;;;;;;;5071332;28;20169;-80
2023/01/27 01:43:27;;;;;;;21.48;11.43;;;;;;;;;;5037814;28;20552;-80
2023/01/27 01:45:57;;;;;;;12.53;8.10;;;;;;;;;;5055061;28;20181;-80
2023/01/27 01:48:25;;;;;;;21.67;10.90;;;;;;;;;;5054899;28;20439;-80
2023/01/27 01:50:54;;;;;;;18.88;10.10;;;;;;;;;;5071663;28;20622;-80
2023/01/27 01:53:21;;;;;;;19.40;10.30;;;;;;;;;;5059656;28;20279;-80
2023/01/27 01:55:47;;;;;;;19.30;9.52;;;;;;;;;;5056826;28;20186;-80
2023/01/27 01:58:14;;;;;;;23.23;10.80;;;;;;;;;;5072834;28;20238;-80
2023/01/27 02:00:40;;;;;;;19.75;9.43;;;;;;;;;;5041634;28;20176;-80
2023/01/27 02:03:06;;;;;;;14.77;8.90;;;;;;;;;;5074267;28;20178;-79
2023/01/27 02:05:34;;;;;;;18.50;10.77;;;;;;;;;;5074318;28;20183;-80
2023/01/27 02:08:06;;;;;;;22.48;12.35;;;;;;;;;;5059399;28;20311;-80
2023/01/27 02:10:33;;;;;;;21.45;11.85;;;;;;;;;;5074092;28;20315;-80
2023/01/27 02:12:59;;;;;;;39.55;12.40;;;;;;;;;;5074168;28;20205;-80
2023/01/27 02:15:25;;;;;;;24.10;13.45;;;;;;;;;;5058866;28;20640;-80
2023/01/27 02:17:51;;;;;;;33.03;12.63;;;;;;;;;;5058872;28;20192;-79
2023/01/27 02:20:23;;;;;;;25.13;11.88;;;;;;;;;;5058788;28;20236;-80
2023/01/27 02:23:11;;;;;;;22.88;13.07;;;;;;;;;;5058743;28;20211;-80
2023/01/27 02:25:49;;;;;;;22.90;13.05;;;;;;;;;;5058828;28;20173;-80
2023/01/27 02:28:15;;;;;;;27.25;13.77;;;;;;;;;;5059121;28;20177;-80
2023/01/27 02:30:41;;;;;;;19.80;11.63;;;;;;;;;;5058817;28;20168;-80
2023/01/27 02:33:13;;;;;;;22.30;12.50;;;;;;;;;;5058840;28;20465;-80
2023/01/27 02:35:39;;;;;;;22.52;11.88;;;;;;;;;;5058394;28;20181;-80
2023/01/27 02:38:06;;;;;;;20.87;11.70;;;;;;;;;;5057986;28;20279;-80
2023/01/27 02:40:33;;;;;;;21.63;11.70;;;;;;;;;;5058218;28;20411;-80
2023/01/27 02:42:59;;;;;;;22.85;12.85;;;;;;;;;;5057247;28;20246;-80
2023/01/27 02:45:27;;;;;;;23.90;11.90;;;;;;;;;;5073860;28;20196;-80
2023/01/27 02:47:53;;;;;;;19.80;12.60;;;;;;;;;;5074660;28;20214;-79
2023/01/27 02:50:19;;;;;;;19.88;10.70;;;;;;;;;;5058873;28;20188;-80
2023/01/27 02:52:45;;;;;;;19.00;10.07;;;;;;;;;;5058470;28;20334;-79
2023/01/27 02:55:11;;;;;;;20.27;11.43;;;;;;;;;;5040604;28;20926;-79
2023/01/27 02:57:37;;;;;;;20.73;11.80;;;;;;;;;;5073212;28;20196;-80
2023/01/27 03:00:03;;;;;;;17.77;10.90;;;;;;;;;;5058309;28;20560;-79
2023/01/27 03:02:29;;;;;;;20.65;12.35;;;;;;;;;;5057423;28;20460;-79
2023/01/27 03:04:56;;;;;;;20.20;11.33;;;;;;;;;;5057971;28;20184;-79
2023/01/27 03:07:22;;;;;;;18.55;9.40;;;;;;;;;;5057783;28;20470;-80
2023/01/27 03:09:48;;;;;;;18.20;11.63;;;;;;;;;;5057940;28;20184;-79
2023/01/27 03:12:20;;;;;;;13.30;7.53;;;;;;;;;;5073507;28;20192;-79
2023/01/27 03:20:16;;;;;;;7.18;4.40;;;;;;;;;;5042832;28;20570;-81
2023/01/27 03:22:42;;;;;;;7.40;4.88;;;;;;;;;;5073017;28;20220;-79
2023/01/27 03:25:08;;;;;;;4.65;3.30;;;;;;;;;;5040379;28;20181;-80
2023/01/27 03:27:35;;;;;;;7.00;3.22;;;;;;;;;;5073137;28;20674;-80
2023/01/27 03:30:01;;;;;;;6.68;3.92;;;;;;;;;;5073358;28;20188;-79
2023/01/27 03:32:28;;;;;;;7.10;5.10;;;;;;;;;;5057154;28;20184;-80
2023/01/27 03:34:57;;;;;;;6.70;4.47;;;;;;;;;;5057925;28;20186;-79
2023/01/27 03:48:30;;;;;;;7.82;5.35;;;;;;;;;;5057129;28;20175;-80
2023/01/27 03:50:57;;;;;;;10.18;6.32;;;;;;;;;;5057534;28;20176;-79
2023/01/27 03:53:23;;;;;;;7.75;5.55;;;;;;;;;;5071988;28;20208;-80
2023/01/27 03:55:49;;;;;;;11.13;5.40;;;;;;;;;;5057085;28;20629;-80
2023/01/27 03:58:25;;;;;;;8.00;5.60;;;;;;;;;;5039402;28;20824;-79
2023/01/27 04:00:51;;;;;;;7.85;4.90;;;;;;;;;;5057249;28;20405;-79
2023/01/27 04:08:48;;;;;;;7.97;5.20;;;;;;;;;;5056847;28;20168;-80
2023/01/27 04:14:02;;;;;;;10.13;5.93;;;;;;;;;;5056811;28;20210;-80
2023/01/27 04:16:29;;;;;;;9.75;5.28;;;;;;;;;;5072072;28;20644;-80
2023/01/27 04:18:56;;;;;;;9.35;6.13;;;;;;;;;;5071884;28;20579;-80
2023/01/27 04:21:22;;;;;;;8.98;5.57;;;;;;;;;;5055531;28;20711;-80
2023/01/27 04:23:48;;;;;;;9.27;5.85;;;;;;;;;;5056226;28;20638;-80
2023/01/27 04:26:14;;;;;;;10.35;5.97;;;;;;;;;;5056581;28;20234;-79
2023/01/27 04:28:40;;;;;;;17.30;7.53;;;;;;;;;;5071550;28;20204;-79
2023/01/27 04:31:06;;;;;;;12.00;6.73;;;;;;;;;;5054967;28;20454;-79
2023/01/27 04:33:32;;;;;;;9.47;6.17;;;;;;;;;;5071557;28;20465;-80
2023/01/27 04:35:58;;;;;;;14.25;7.40;;;;;;;;;;5056221;28;20407;-80
2023/01/27 04:38:24;;;;;;;9.13;4.00;;;;;;;;;;5055399;28;20538;-80
2023/01/27 04:40:50;;;;;;;10.38;6.80;;;;;;;;;;5038863;28;20259;-80
2023/01/27 04:43:16;;;;;;;9.70;7.07;;;;;;;;;;5056159;28;20186;-80
2023/01/27 04:45:42;;;;;;;12.90;7.63;;;;;;;;;;5055526;28;20451;-80
2023/01/27 04:48:08;;;;;;;12.82;7.53;;;;;;;;;;5055769;28;20487;-80
2023/01/27 04:50:34;;;;;;;15.93;7.63;;;;;;;;;;5055543;28;20621;-80
2023/01/27 04:53:00;;;;;;;12.38;7.43;;;;;;;;;;5055168;28;20462;-80
2023/01/27 04:55:26;;;;;;;13.93;7.65;;;;;;;;;;5071307;28;20188;-80
2023/01/27 04:57:52;;;;;;;12.60;7.10;;;;;;;;;;5056108;28;20172;-77
2023/01/27 05:00:18;;;;;;;12.15;6.78;;;;;;;;;;5055870;28;20178;-80
2023/01/27 05:02:44;;;;;;;12.93;7.35;;;;;;;;;;5055698;28;20608;-80
2023/01/27 05:05:10;;;;;;;11.77;7.10;;;;;;;;;;5056002;28;20254;-80
2023/01/27 05:07:36;;;;;;;12.63;6.97;;;;;;;;;;5055447;28;20958;-80
2023/01/27 05:10:02;;;;;;;13.88;7.05;;;;;;;;;;5055434;28;20184;-80
2023/01/27 05:12:28;;;;;;;7.43;5.23;;;;;;;;;;5055154;28;20203;-80
2023/01/27 05:14:54;;;;;;;13.50;6.57;;;;;;;;;;5071243;28;20479;-80
2023/01/27 05:17:20;;;;;;;9.25;6.45;;;;;;;;;;5071551;28;20422;-79
2023/01/27 05:19:46;;;;;;;12.75;7.15;;;;;;;;;;5071720;28;20323;-79
2023/01/27 05:22:12;;;;;;;10.20;5.93;;;;;;;;;;5072155;28;20183;-80
2023/01/27 05:24:38;;;;;;;9.32;5.68;;;;;;;;;;5055982;28;20230;-80
2023/01/27 05:27:04;;;;;;;10.52;6.20;;;;;;;;;;5056890;28;20179;-79
2023/01/27 05:29:31;;;;;;;11.70;6.45;;;;;;;;;;5056153;28;20172;-79
2023/01/27 05:31:57;;;;;;;9.88;6.05;;;;;;;;;;5057642;28;20181;-80
2023/01/27 05:34:23;;;;;;;13.25;6.93;;;;;;;;;;5075764;28;20302;-80
2023/01/27 05:36:50;;;;;;;10.75;6.00;;;;;;;;;;5060010;28;20216;-80
2023/01/27 05:39:16;;;;;;;11.68;6.97;;;;;;;;;;5075826;28;20279;-80
2023/01/27 05:41:42;;;;;;;11.05;6.88;;;;;;;;;;5059427;28;20172;-78
2023/01/27 05:44:10;;;;;;;11.60;6.80;;;;;;;;;;5059997;28;20655;-78
2023/01/27 05:46:38;;;;;;;10.27;6.20;;;;;;;;;;5074889;28;20269;-78
2023/01/27 05:49:04;;;;;;;14.30;7.30;;;;;;;;;;5059947;28;20186;-78
2023/01/27 05:51:31;;;;;;;11.13;6.95;;;;;;;;;;5059787;28;20547;-79
2023/01/27 05:53:57;;;;;;;15.70;6.90;;;;;;;;;;5074946;28;20667;-79
2023/01/27 05:56:24;;;;;;;12.40;8.33;;;;;;;;;;5060188;28;20186;-79
2023/01/27 05:58:50;;;;;;;13.43;8.18;;;;;;;;;;5042092;28;20549;-79
2023/01/27 06:01:17;;;;;;;11.57;7.53;;;;;;;;;;5074651;28;20217;-78
2023/01/27 06:03:44;;;;;;;12.52;7.43;;;;;;;;;;5075028;28;20807;-79
2023/01/27 06:06:11;;;;;;;17.27;8.80;;;;;;;;;;5058989;28;20173;-79
2023/01/27 06:08:37;;;;;;;16.02;8.65;;;;;;;;;;5058764;28;20254;-79
2023/01/27 06:11:04;;;;;;;12.90;7.90;;;;;;;;;;5074536;28;20182;-79
2023/01/27 06:13:30;;;;;;;13.43;8.68;;;;;;;;;;5057345;28;20211;-79
2023/01/27 06:15:56;;;;;;;15.90;9.40;;;;;;;;;;5074748;28;20188;-79
2023/01/27 06:18:23;;;;;;;17.95;8.95;;;;;;;;;;5058962;28;20266;-79
2023/01/27 06:20:49;;;;;;;14.85;7.93;;;;;;;;;;5073733;28;20181;-79
2023/01/27 06:23:16;;;;;;;14.05;9.73;;;;;;;;;;5077861;28;20196;-79
2023/01/27 06:25:43;;;;;;;17.35;9.73;;;;;;;;;;5040999;28;20176;-79
2023/01/27 06:28:09;;;;;;;14.15;8.60;;;;;;;;;;5074207;28;20179;-79
2023/01/27 06:30:36;;;;;;;16.58;9.88;;;;;;;;;;5040708;28;20579;-79
2023/01/27 06:33:02;;;;;;;16.63;10.18;;;;;;;;;;5058313;28;20523;-79
2023/01/27 06:35:29;;;;;;;22.77;10.40;;;;;;;;;;5058402;28;20171;-79
2023/01/27 06:37:57;;;;;;;13.35;8.15;;;;;;;;;;5073825;28;20184;-79
2023/01/27 06:40:23;;;;;;;14.07;9.25;;;;;;;;;;5073915;28;20529;-79
2023/01/27 06:42:49;;;;;;;18.35;10.15;;;;;;;;;;5040274;28;20230;-79
2023/01/27 06:45:15;;;;;;;14.65;9.10;;;;;;;;;;5073799;28;20578;-79
2023/01/27 06:47:41;;;;;;;16.60;11.18;;;;;;;;;;5073835;28;20183;-79
2023/01/27 06:50:08;;;;;;;17.70;10.53;;;;;;;;;;5058291;28;20652;-79
2023/01/27 06:52:34;;;;;;;20.10;10.63;;;;;;;;;;5057782;28;20402;-79
2023/01/27 06:55:00;;;;;;;20.05;10.45;;;;;;;;;;5056956;28;20187;-79
2023/01/27 06:57:26;;;;;;;17.05;10.88;;;;;;;;;;5073001;28;20663;-79
2023/01/27 06:59:52;;;;;;;18.80;10.57;;;;;;;;;;5057579;28;20185;-79
2023/01/27 07:02:18;;;;;;;15.27;10.53;;;;;;;;;;5076261;28;20891;-79
2023/01/27 07:04:44;;;;;;;20.70;10.93;;;;;;;;;;5060301;28;20410;-79
2023/01/27 07:07:10;;;;;;;17.37;11.43;;;;;;;;;;5059898;28;20228;-79
2023/01/27 07:09:36;;;;;;;17.70;10.65;;;;;;;;;;5059860;28;20846;-79
2023/01/27 07:12:02;;;;;;;17.17;11.93;;;;;;;;;;5059942;28;20187;-79
2023/01/27 07:14:28;;;;;;;22.70;12.00;;;;;;;;;;5059225;28;20294;-79
2023/01/27 07:16:54;;;;;;;16.17;11.10;;;;;;;;;;5059899;28;20218;-79
2023/01/27 07:19:20;;;;;;;24.60;12.30;;;;;;;;;;5059975;28;20409;-79
2023/01/27 07:21:46;;;;;;;21.10;12.70;;;;;;;;;;5077377;28;20425;-79
2023/01/27 07:24:12;;;;;;;17.97;11.70;;;;;;;;;;5076979;28;20771;-79
2023/01/27 07:26:38;;;;;;;20.10;11.15;;;;;;;;;;5077128;28;20456;-79
2023/01/27 07:29:04;;;;;;;22.63;11.95;;;;;;;;;;5077352;28;20176;-79
2023/01/27 07:31:30;;;;;;;23.10;13.53;;;;;;;;;;5043190;28;20207;-84
2023/01/27 07:33:56;;;;;;;17.40;11.43;;;;;;;;;;5077275;28;20503;-79
2023/01/27 07:36:22;;;;;;;19.37;11.53;;;;;;;;;;5059487;28;20766;-79
2023/01/27 07:38:49;;;;;;;18.13;10.65;;;;;;;;;;5076492;28;20440;-79
2023/01/27 07:41:15;;;;;;;19.73;12.45;;;;;;;;;;5077650;28;20229;-79
2023/01/27 07:43:41;;;;;;;20.17;12.33;;;;;;;;;;5058927;28;20611;-79
2023/01/27 07:46:07;;;;;;;19.10;11.50;;;;;;;;;;5058973;28;20437;-79
2023/01/27 07:48:33;;;;;;;23.20;13.10;;;;;;;;;;5062380;28;20445;-80
2023/01/27 07:50:59;;;;;;;18.13;11.60;;;;;;;;;;5080297;28;20702;-79
2023/01/27 07:53:25;;;;;;;18.63;11.67;;;;;;;;;;5077840;28;20465;-79
2023/01/27 07:55:51;;;;;;;18.10;11.23;;;;;;;;;;5059122;28;20425;-79
2023/01/27 07:58:17;;;;;;;22.75;12.70;;;;;;;;;;5076457;28;20784;-79
2023/01/27 08:00:43;;;;;;;22.48;12.45;;;;;;;;;;5076369;28;20173;-79
2023/01/27 08:03:20;;;;;;;16.20;11.70;;;;;;;;;;5077055;28;20185;-79
2023/01/27 08:05:46;;;;;;;20.13;11.40;;;;;;;;;;5076338;28;20634;-80
2023/01/27 08:08:12;;;;;;;18.00;11.97;;;;;;;;;;5076858;28;20228;-79
2023/01/27 08:10:38;;;;;;;17.77;9.80;;;;;;;;;;5058928;28;20927;-79
2023/01/27 08:13:05;;;;;;;15.07;10.75;;;;;;;;;;5058723;28;20472;-79
2023/01/27 08:15:31;;;;;;;16.33;10.60;;;;;;;;;;5058445;28;20179;-79
2023/01/27 08:17:57;;;;;;;19.60;11.90;;;;;;;;;;5076555;28;20256;-79
2023/01/27 08:20:24;;;;;;;18.88;11.75;;;;;;;;;;5058755;28;20545;-79
2023/01/27 08:22:50;;;;;;;18.13;12.75;;;;;;;;;;5076122;28;20247;-83
2023/01/27 08:25:16;;;;;;;18.85;11.82;;;;;;;;;;5076423;28;20180;-80
2023/01/27 08:27:42;;;;;;;19.13;11.95;;;;;;;;;;5057713;28;20192;-81
2023/01/27 08:30:08;;;;;;;22.52;12.45;;;;;;;;;;5058407;28;20197;-80
2023/01/27 08:32:34;;;;;;;17.08;12.10;;;;;;;;;;5057967;28;20181;-82
2023/01/27 08:35:00;;;;;;;16.50;10.03;;;;;;;;;;5058694;28;20184;-80
2023/01/27 08:37:26;;;;;;;19.07;11.43;;;;;;;;;;5057929;28;20430;-81
2023/01/27 08:39:52;;;;;;;19.85;13.05;;;;;;;;;;5040606;28;20514;-82
2023/01/27 08:42:18;;;;;;;17.60;12.30;;;;;;;;;;5058315;28;20318;-80
2023/01/27 08:44:44;;;;;;;20.38;12.73;;;;;;;;;;5041251;28;20418;-80
2023/01/27 08:47:10;;;;;;;18.40;11.63;;;;;;;;;;5075375;28;20529;-80
2023/01/27 08:49:36;;;;;;;21.63;13.47;;;;;;;;;;5057364;28;20195;-81
2023/01/27 08:52:02;;;;;;;16.27;11.23;;;;;;;;;;5075864;28;20821;-80
2023/01/27 08:54:28;;;;;;;18.10;11.38;;;;;;;;;;5064884;28;20552;-80
2023/01/27 08:56:54;;;;;;;16.60;12.40;;;;;;;;;;5062469;28;20612;-80
2023/01/27 08:59:20;;;;;;;15.35;11.25;;;;;;;;;;5071438;28;20413;-80
2023/01/27 09:01:46;;;;;;;17.00;11.57;;;;;;;;;;5057399;28;20214;-80
2023/01/27 09:04:12;;;;;;;18.60;11.17;;;;;;;;;;5057736;28;20571;-80
2023/01/27 09:06:38;;;;;;;16.03;10.07;;;;;;;;;;5074205;28;20472;-80
2023/01/27 09:09:10;;;;;;;16.92;10.50;;;;;;;;;;5057709;28;20536;-80
2023/01/27 09:11:38;;;;;;;15.68;10.32;;;;;;;;;;5057332;28;20199;-83
2023/01/27 09:14:04;;;;;;;12.13;8.75;;;;;;;;;;5057607;28;20208;-80
2023/01/27 09:16:30;;;;;;;11.93;8.95;;;;;;;;;;5075703;28;20184;-80
2023/01/27 09:18:57;;;;;;;13.02;9.05;;;;;;;;;;5075103;28;20173;-80
2023/01/27 09:21:23;;;;;;;10.80;8.40;;;;;;;;;;5040877;28;20188;-82
2023/01/27 09:23:49;;;;;;;12.10;9.18;;;;;;;;;;5056687;28;20441;-80
2023/01/27 09:26:15;;;;;;;10.82;8.00;;;;;;;;;;5057111;28;20184;-80
2023/01/27 09:28:41;;;;;;;11.90;8.23;;;;;;;;;;5074701;28;20179;-80
2023/01/27 09:31:10;;;;;;;10.00;7.70;;;;;;;;;;5056881;28;20180;-80
2023/01/27 09:33:37;;;;;;;9.80;7.75;;;;;;;;;;5057788;28;20776;-87
2023/01/27 09:36:09;;;;;;;9.70;7.72;;;;;;;;;;5070228;28;20185;-92
2023/01/27 09:38:37;;;;;;;9.68;7.65;;;;;;;;;;5092076;28;20198;-93
2023/01/27 09:41:03;;;;;;;9.82;7.45;;;;;;;;;;5073855;28;20183;-93
2023/01/27 09:43:38;;;;;;;8.77;7.10;;;;;;;;;;5070941;28;20600;-89
2023/01/27 09:46:09;;;;;;;7.95;6.25;;;;;;;;;;5069333;28;20418;-93
2023/01/27 09:48:49;;;;;;;9.70;7.07;;;;;;;;;;5056720;28;20306;-82
2023/01/27 09:51:29;;;;;;;8.70;6.65;;;;;;;;;;5077545;28;20178;-80
2023/01/27 09:53:58;;;;;;;9.90;7.63;;;;;;;;;;5057897;28;20188;-80
2023/01/27 09:56:46;;;;;;;10.40;6.75;;;;;;;;;;5056647;28;20192;-81
2023/01/27 09:59:24;;;;;;;10.80;7.63;;;;;;;;;;5073976;28;20532;-81
2023/01/27 10:01:58;;;;;;;11.70;8.05;;;;;;;;;;5055692;28;20165;-81
2023/01/27 10:04:33;;;;;;;8.80;7.07;;;;;;;;;;5074288;28;20196;-81
2023/01/27 10:07:17;;;;;;;9.63;6.95;;;;;;;;;;5073447;28;20231;-80
2023/01/27 10:10:21;;;;;;;8.52;6.30;;;;;;;;;;5074145;28;20165;-81
2023/01/27 10:12:54;;;;;;;8.18;5.97;;;;;;;;;;5031401;28;20578;-80
2023/01/27 10:15:20;;;;;;;7.75;6.93;;;;;;;;;;5032135;28;20167;-80
2023/01/27 10:17:55;;;;;;;8.90;7.47;;;;;;;;;;5036369;28;20544;-80
2023/01/27 10:20:40;;;;;;;9.23;7.55;;;;;;;;;;5078282;28;20517;-80
2023/01/27 10:23:13;;;;;;;8.77;7.75;;;;;;;;;;5077902;28;20522;-80
2023/01/27 10:25:52;;;;;;;7.80;6.32;;;;;;;;;;5060000;28;20165;-80
2023/01/27 10:28:22;;;;;;;12.98;6.60;;;;;;;;;;5077978;28;20191;-80
2023/01/27 10:31:01;;;;;;;10.32;7.68;;;;;;;;;;5060794;28;20269;-81
2023/01/27 10:33:34;;;;;;;8.63;7.50;;;;;;;;;;5047397;28;20280;-80
2023/01/27 10:36:03;;;;;;;9.00;6.50;;;;;;;;;;5059199;28;20647;-80
2023/01/27 10:38:46;;;;;;;8.63;6.65;;;;;;;;;;5058467;28;20177;-80
2023/01/27 10:41:34;;;;;;;8.90;7.47;;;;;;;;;;5073328;28;20205;-80
2023/01/27 10:44:26;;;;;;;8.60;7.50;;;;;;;;;;5037805;28;20623;-81
2023/01/27 10:46:58;;;;;;;14.95;7.80;;;;;;;;;;5025861;28;20667;-80
2023/01/27 10:49:30;;;;;;;9.98;8.45;;;;;;;;;;5057893;28;20177;-80
2023/01/27 10:52:09;;;;;;;10.60;7.65;;;;;;;;;;5057353;28;20174;-80
2023/01/27 10:54:40;;;;;;;8.60;7.50;;;;;;;;;;5040246;28;20205;-81
2023/01/27 10:57:09;;;;;;;9.52;8.07;;;;;;;;;;5039248;28;20260;-81
2023/01/27 10:59:47;;;;;;;6.72;5.97;;;;;;;;;;5039540;28;20180;-81
2023/01/27 11:02:25;;;;;;;8.30;7.05;;;;;;;;;;5039129;28;20173;-81
2023/01/27 11:04:57;;;;;;;7.38;6.38;;;;;;;;;;5056585;28;20514;-81
2023/01/27 11:07:24;;;;;;;8.25;7.03;;;;;;;;;;5038901;28;20744;-81
2023/01/27 11:10:01;;;;;;;7.10;6.40;;;;;;;;;;5056887;28;20203;-81
2023/01/27 11:12:33;;;;;;;8.02;6.50;;;;;;;;;;5056624;28;20215;-81
2023/01/27 11:15:00;;;;;;;8.00;6.97;;;;;;;;;;5056591;28;20198;-80
2023/01/27 11:17:31;;;;;;;11.38;7.10;;;;;;;;;;5056867;28;20212;-81
2023/01/27 11:20:23;;;;;;;8.68;6.72;;;;;;;;;;5038764;28;20173;-80
2023/01/27 11:22:55;;;;;;;7.75;6.70;;;;;;;;;;5056287;28;20167;-81
2023/01/27 11:25:21;;;;;;;7.82;7.03;;;;;;;;;;5038512;28;20256;-81
2023/01/27 11:28:03;;;;;;;6.73;6.03;;;;;;;;;;5037984;28;20211;-81
2023/01/27 11:30:42;;;;;;;7.40;6.40;;;;;;;;;;5056375;28;20427;-81
2023/01/27 11:33:31;;;;;;;13.43;8.48;;;;;;;;;;5037983;28;20205;-81
2023/01/27 11:35:57;;;;;;;10.20;7.05;;;;;;;;;;5029684;28;20184;-81
2023/01/27 11:38:23;;;;;;;7.60;6.50;;;;;;;;;;5038559;28;20484;-81
2023/01/27 11:40:51;;;;;;;6.70;5.65;;;;;;;;;;5037672;28;20408;-81
2023/01/27 11:43:19;;;;;;;6.53;5.15;;;;;;;;;;5055115;28;20174;-82
2023/01/27 11:45:45;;;;;;;5.53;5.00;;;;;;;;;;5055931;28;20178;-80
2023/01/27 11:48:13;;;;;;;8.10;6.03;;;;;;;;;;5054909;28;20533;-81
2023/01/27 11:50:40;;;;;;;6.40;5.68;;;;;;;;;;5071888;28;20171;-81
2023/01/27 11:53:09;;;;;;;9.25;5.20;;;;;;;;;;5055632;28;20193;-80
2023/01/27 11:55:37;;;;;;;5.68;5.10;;;;;;;;;;5056086;28;20190;-80
2023/01/27 11:58:15;;;;;;;6.50;5.60;;;;;;;;;;5071647;28;20260;-80
2023/01/27 12:00:50;;;;;;;6.05;4.88;;;;;;;;;;5056001;28;20248;-80
2023/01/27 12:03:40;;;;;;;5.22;4.50;;;;;;;;;;5056045;28;20166;-81
2023/01/27 12:06:11;;;;;;;5.82;4.70;;;;;;;;;;5026726;28;20202;-80
2023/01/27 12:08:39;;;;;;;6.00;5.38;;;;;;;;;;5068066;28;20251;-81
2023/01/27 12:11:22;;;;;;;8.50;6.65;;;;;;;;;;5075602;28;20253;-80
2023/01/27 12:13:49;;;;;;;5.35;4.43;;;;;;;;;;5065104;28;20525;-81
2023/01/27 12:16:15;;;;;;;8.48;5.10;;;;;;;;;;5055574;28;20176;-80
2023/01/27 12:18:47;;;;;;;6.05;5.15;;;;;;;;;;5021929;28;20186;-80
2023/01/27 12:21:13;;;;;;;9.85;4.80;;;;;;;;;;5056241;28;20208;-80
2023/01/27 12:23:46;;;;;;;14.45;9.77;;;;;;;;;;5055506;28;20231;-80
2023/01/27 12:26:12;;;;;;;7.10;5.68;;;;;;;;;;5055183;28;20573;-80
2023/01/27 12:28:38;;;;;;;5.30;4.25;;;;;;;;;;5055555;28;20177;-80
2023/01/27 12:31:10;;;;;;;7.30;5.40;;;;;;;;;;5055291;28;20231;-80
2023/01/27 12:33:37;;;;;;;6.00;5.00;;;;;;;;;;5037427;28;20463;-80
2023/01/27 12:36:10;;;;;;;8.48;7.05;;;;;;;;;;5037600;28;20204;-81
2023/01/27 12:38:36;;;;;;;6.22;5.13;;;;;;;;;;5037279;28;20177;-80
2023/01/27 12:41:06;;;;;;;4.95;4.15;;;;;;;;;;5036687;28;20265;-80
2023/01/27 12:43:48;;;;;;;6.15;4.43;;;;;;;;;;5056212;28;20174;-80
2023/01/27 12:46:19;;;;;;;5.80;4.20;;;;;;;;;;5057739;28;20237;-80
2023/01/27 12:48:50;;;;;;;5.25;3.90;;;;;;;;;;5056803;28;20176;-80
2023/01/27 12:51:18;;;;;;;4.90;3.22;;;;;;;;;;5037671;28;20237;-80
2023/01/27 12:53:44;;;;;;;3.05;2.60;;;;;;;;;;5037488;28;20212;-80
2023/01/27 12:56:12;;;;;;;3.10;2.80;;;;;;;;;;5055225;28;20182;-80
2023/01/27 12:58:38;;;;;;;2.65;2.45;;;;;;;;;;5037230;28;20174;-80
2023/01/27 13:01:25;;;;;;;2.70;2.50;;;;;;;;;;5054544;28;20691;-80
2023/01/27 13:03:53;;;;;;;3.35;3.05;;;;;;;;;;5017094;28;20180;-81
2023/01/27 13:06:24;;;;;;;2.67;2.47;;;;;;;;;;5034725;28;20275;-80
2023/01/27 13:08:52;;;;;;;2.85;2.55;;;;;;;;;;5016905;28;20168;-86
2023/01/27 13:11:28;;;;;;;2.35;2.10;;;;;;;;;;5034578;28;20174;-80
2023/01/27 13:13:56;;;;;;;3.95;2.05;;;;;;;;;;5017732;28;20220;-80
2023/01/27 13:16:25;;;;;;;2.13;1.92;;;;;;;;;;5035008;28;20181;-80
2023/01/27 13:18:53;;;;;;;1.70;1.60;;;;;;;;;;5017472;28;20256;-85
2023/01/27 13:21:22;;;;;;;1.63;1.50;;;;;;;;;;5036582;28;20176;-80
2023/01/27 13:23:50;;;;;;;1.88;1.77;;;;;;;;;;5035074;28;20195;-79
2023/01/27 13:26:17;;;;;;;3.55;2.05;;;;;;;;;;5016533;28;20179;-80
2023/01/27 13:28:53;;;;;;;1.75;1.52;;;;;;;;;;5017109;28;20179;-80
2023/01/27 13:31:24;;;;;;;2.33;1.85;;;;;;;;;;5018397;28;20170;-80
2023/01/27 13:33:54;;;;;;;2.20;2.00;;;;;;;;;;5035396;28;20612;-80
2023/01/27 13:36:33;;;;;;;4.20;3.60;;;;;;;;;;5017211;28;20324;-80
2023/01/27 13:39:11;;;;;;;1.83;1.73;;;;;;;;;;5017195;28;20168;-80
2023/01/27 13:42:04;;;;;;;2.63;2.42;;;;;;;;;;5034500;28;20169;-80
2023/01/27 13:44:48;;;;;;;1.80;1.70;;;;;;;;;;5033257;28;20218;-80
2023/01/27 13:47:17;;;;;;;2.92;2.60;;;;;;;;;;5034478;28;20200;-80
2023/01/27 13:49:46;;;;;;;2.40;1.80;;;;;;;;;;5034693;28;20201;-80
2023/01/27 13:52:12;;;;;;;4.57;3.70;;;;;;;;;;5035802;28;20592;-80
2023/01/27 13:54:38;;;;;;;2.53;2.33;;;;;;;;;;5058175;28;20207;-79
2023/01/27 13:57:16;;;;;;;2.55;2.35;;;;;;;;;;5057877;28;20523;-80
2023/01/27 13:59:45;;;;;;;2.40;1.95;;;;;;;;;;5073714;28;20172;-80
2023/01/27 14:02:30;;;;;;;2.30;2.13;;;;;;;;;;5058341;28;20166;-80
2023/01/27 14:05:25;;;;;;;6.35;2.85;;;;;;;;;;5073714;28;20278;-80
2023/01/27 14:07:54;;;;;;;2.30;2.10;;;;;;;;;;5073129;28;20779;-79
2023/01/27 14:10:26;;;;;;;3.22;2.65;;;;;;;;;;5073722;28;20185;-80
2023/01/27 14:12:58;;;;;;;3.30;2.90;;;;;;;;;;5058133;28;20186;-79
2023/01/27 14:15:32;;;;;;;3.40;3.10;;;;;;;;;;5057784;28;20215;-79
2023/01/27 14:18:34;;;;;;;3.70;3.00;;;;;;;;;;5073562;28;20173;-80
2023/01/27 14:21:09;;;;;;;4.25;3.33;;;;;;;;;;4976353;28;20254;-80
2023/01/27 14:23:59;;;;;;;6.68;4.13;;;;;;;;;;5046480;28;20181;-80
2023/01/27 14:26:46;;;;;;;3.25;2.95;;;;;;;;;;5072746;28;20174;-80
2023/01/27 14:29:17;;;;;;;2.75;2.55;;;;;;;;;;5058149;28;20176;-80
2023/01/27 14:31:43;;;;;;;3.30;2.75;;;;;;;;;;5074226;28;20188;-78
2023/01/27 14:34:18;;;;;;;3.57;3.27;;;;;;;;;;5058077;28;20657;-77
2023/01/27 14:36:44;;;;;;;3.85;3.55;;;;;;;;;;5058334;28;20428;-77
2023/01/27 14:39:10;;;;;;;3.67;2.90;;;;;;;;;;5073154;28;20595;-78
2023/01/27 14:41:47;;;;;;;4.40;3.90;;;;;;;;;;5073028;28;20767;-78
2023/01/27 14:44:35;;;;;;;4.30;3.42;;;;;;;;;;5057751;28;20395;-78
2023/01/27 14:47:15;;;;;;;3.90;3.45;;;;;;;;;;5073013;28;20257;-77
2023/01/27 14:49:44;;;;;;;4.18;3.78;;;;;;;;;;5073726;28;20169;-78
2023/01/27 14:52:10;;;;;;;4.60;4.10;;;;;;;;;;5073281;28;20184;-78
2023/01/27 14:54:55;;;;;;;5.23;4.70;;;;;;;;;;5073624;28;20201;-77
2023/01/27 14:57:47;;;;;;;8.52;5.13;;;;;;;;;;5073314;28;20421;-77
2023/01/27 15:00:13;;;;;;;6.82;6.07;;;;;;;;;;5035390;28;20197;-78
2023/01/27 15:03:02;;;;;;;5.63;5.10;;;;;;;;;;5073068;28;20189;-78
2023/01/27 15:05:28;;;;;;;7.57;6.60;;;;;;;;;;5019633;28;20455;-78
2023/01/27 15:08:13;;;;;;;6.60;5.90;;;;;;;;;;5072869;28;20225;-78
2023/01/27 15:10:46;;;;;;;6.93;6.22;;;;;;;;;;5057677;28;20405;-78
2023/01/27 15:13:35;;;;;;;5.40;4.90;;;;;;;;;;5072543;28;20308;-78
2023/01/27 15:16:07;;;;;;;5.53;4.95;;;;;;;;;;5002864;28;20654;-78
2023/01/27 15:18:48;;;;;;;6.78;5.00;;;;;;;;;;5057298;28;20501;-77